Skip to main content Skip to accessibility
This website is not compatible with your web browser. You should install a newer browser. If you live in Jersey and need help upgrading call the States of Jersey web team on 440099.
Homegov.je

L'înformâtion et les sèrvices publyis pouor I'Île dé Jèrri

  • Choose the service you want to log in to:

  • gov.je

    Update your notification preferences

  • one.gov.je

    Access government and parish services

  • CAESAR

    Clear goods through customs or claim relief

  • Talentlink

    View or update your States of Jersey job application

CI Airfield TAFs

JERSEY - EGJJ

EGJJ 172303Z 1800/1809 04010KT 9999 FEW015 BKN040 PROB30 TEMPO 1806/1809 BKN010=

GUERNSEY - EGJB

EGJB 172303Z 1800/1809 05011KT 9999 FEW015 BKN040 PROB40 TEMPO 1806/1809 BKN010=

ALDERNEY - EGJA

EGJA 171401Z 1715/1724 VRB05KT 9999 FEW018=

Back to top
rating button